sensor_id;sensor_type;location;lat;lon;timestamp;noise_LAeq;noise_LA_min;noise_LA_max;noise_LA01;noise_LA95
64545;Laerm;50936;51.660;5.616;2023-07-08T00:01:20;37.28;31.68;40.45;;
64545;Laerm;50936;51.660;5.616;2023-07-08T00:03:48;38.91;32.93;44.47;;
64545;Laerm;50936;51.660;5.616;2023-07-08T00:06:26;37.87;31.68;44.65;;
64545;Laerm;50936;51.660;5.616;2023-07-08T00:08:54;37.42;31.68;40.98;;
64545;Laerm;50936;51.660;5.616;2023-07-08T00:11:22;37.99;31.68;44.11;;
64545;Laerm;50936;51.660;5.616;2023-07-08T00:13:50;38.24;32.35;44.03;;
64545;Laerm;50936;51.660;5.616;2023-07-08T00:16:18;38.70;30.89;53.65;;
64545;Laerm;50936;51.660;5.616;2023-07-08T00:18:47;37.74;31.68;42.59;;
64545;Laerm;50936;51.660;5.616;2023-07-08T00:21:17;38.13;32.35;44.69;;
64545;Laerm;50936;51.660;5.616;2023-07-08T00:23:49;37.61;31.68;42.22;;
64545;Laerm;50936;51.660;5.616;2023-07-08T00:26:26;37.45;32.00;42.16;;
64545;Laerm;50936;51.660;5.616;2023-07-08T00:28:54;39.52;31.68;44.07;;
64545;Laerm;50936;51.660;5.616;2023-07-08T00:31:23;40.64;36.69;45.11;;
64545;Laerm;50936;51.660;5.616;2023-07-08T00:33:53;40.63;36.91;42.82;;
64545;Laerm;50936;51.660;5.616;2023-07-08T00:36:27;40.84;36.69;46.38;;
64545;Laerm;50936;51.660;5.616;2023-07-08T00:38:55;40.81;35.04;43.19;;
64545;Laerm;50936;51.660;5.616;2023-07-08T00:41:37;40.49;36.20;43.90;;
64545;Laerm;50936;51.660;5.616;2023-07-08T00:44:07;40.87;37.12;44.76;;
64545;Laerm;50936;51.660;5.616;2023-07-08T00:46:48;40.22;35.94;44.47;;
64545;Laerm;50936;51.660;5.616;2023-07-08T00:49:28;38.34;32.35;43.54;;
64545;Laerm;50936;51.660;5.616;2023-07-08T00:52:23;37.94;32.35;43.54;;
64545;Laerm;50936;51.660;5.616;2023-07-08T00:54:58;37.18;32.35;40.89;;
64545;Laerm;50936;51.660;5.616;2023-07-08T00:57:33;38.90;32.35;43.97;;
64545;Laerm;50936;51.660;5.616;2023-07-08T01:00:09;37.68;31.68;41.68;;
64545;Laerm;50936;51.660;5.616;2023-07-08T01:02:46;37.43;30.89;41.89;;
64545;Laerm;50936;51.660;5.616;2023-07-08T01:05:25;37.43;31.68;43.04;;
64545;Laerm;50936;51.660;5.616;2023-07-08T01:08:02;37.36;31.68;42.65;;
64545;Laerm;50936;51.660;5.616;2023-07-08T01:10:38;37.24;31.68;41.61;;
64545;Laerm;50936;51.660;5.616;2023-07-08T01:13:08;37.73;30.89;42.76;;
64545;Laerm;50936;51.660;5.616;2023-07-08T01:15:42;38.46;31.68;43.44;;
64545;Laerm;50936;51.660;5.616;2023-07-08T01:18:15;37.56;29.57;42.09;;
64545;Laerm;50936;51.660;5.616;2023-07-08T01:20:43;38.13;32.93;43.04;;
64545;Laerm;50936;51.660;5.616;2023-07-08T01:23:11;38.17;31.68;44.58;;
64545;Laerm;50936;51.660;5.616;2023-07-08T01:25:41;38.53;29.92;44.62;;
64545;Laerm;50936;51.660;5.616;2023-07-08T01:28:10;37.76;31.68;41.14;;
64545;Laerm;50936;51.660;5.616;2023-07-08T01:30:37;37.60;31.68;41.82;;
64545;Laerm;50936;51.660;5.616;2023-07-08T01:33:14;38.16;29.92;42.53;;
64545;Laerm;50936;51.660;5.616;2023-07-08T01:35:45;40.63;37.12;42.76;;
64545;Laerm;50936;51.660;5.616;2023-07-08T01:38:15;40.88;36.69;42.93;;
64545;Laerm;50936;51.660;5.616;2023-07-08T01:40:55;41.00;37.12;42.88;;
64545;Laerm;50936;51.660;5.616;2023-07-08T01:43:23;41.10;36.91;45.39;;
64545;Laerm;50936;51.660;5.616;2023-07-08T01:45:52;41.20;37.88;43.29;;
64545;Laerm;50936;51.660;5.616;2023-07-08T01:48:23;41.38;37.12;44.69;;
64545;Laerm;50936;51.660;5.616;2023-07-08T01:51:06;41.31;37.12;45.07;;
64545;Laerm;50936;51.660;5.616;2023-07-08T01:53:41;41.20;38.05;46.73;;
64545;Laerm;50936;51.660;5.616;2023-07-08T01:56:10;41.04;36.91;42.93;;
64545;Laerm;50936;51.660;5.616;2023-07-08T01:58:38;41.10;38.21;43.19;;
64545;Laerm;50936;51.660;5.616;2023-07-08T02:01:07;41.18;37.88;43.58;;
64545;Laerm;50936;51.660;5.616;2023-07-08T02:03:34;41.02;36.91;43.14;;
64545;Laerm;50936;51.660;5.616;2023-07-08T02:06:03;40.79;37.32;43.29;;
64545;Laerm;50936;51.660;5.616;2023-07-08T02:08:30;40.46;36.91;43.81;;
64545;Laerm;50936;51.660;5.616;2023-07-08T02:10:58;40.43;36.56;45.57;;
64545;Laerm;50936;51.660;5.616;2023-07-08T02:13:26;38.46;31.33;44.31;;
64545;Laerm;50936;51.660;5.616;2023-07-08T02:15:53;37.23;31.68;53.62;;
64545;Laerm;50936;51.660;5.616;2023-07-08T02:18:20;37.06;30.89;51.57;;
64545;Laerm;50936;51.660;5.616;2023-07-08T02:20:47;37.03;29.92;39.92;;
64545;Laerm;50936;51.660;5.616;2023-07-08T02:23:15;37.50;31.68;42.93;;
64545;Laerm;50936;51.660;5.616;2023-07-08T02:25:51;37.58;30.89;42.93;;
64545;Laerm;50936;51.660;5.616;2023-07-08T02:28:19;37.40;30.89;44.94;;
64545;Laerm;50936;51.660;5.616;2023-07-08T02:30:46;37.17;32.35;41.22;;
64545;Laerm;50936;51.660;5.616;2023-07-08T02:33:14;37.22;31.68;40.89;;
64545;Laerm;50936;51.660;5.616;2023-07-08T02:35:44;37.93;29.92;43.86;;
64545;Laerm;50936;51.660;5.616;2023-07-08T02:38:13;37.02;31.68;39.58;;
64545;Laerm;50936;51.660;5.616;2023-07-08T02:40:40;37.17;29.92;47.95;;
64545;Laerm;50936;51.660;5.616;2023-07-08T02:43:07;37.13;31.68;44.39;;
64545;Laerm;50936;51.660;5.616;2023-07-08T02:45:36;37.07;30.89;42.88;;
64545;Laerm;50936;51.660;5.616;2023-07-08T02:48:03;37.94;29.57;43.63;;
64545;Laerm;50936;51.660;5.616;2023-07-08T02:50:31;37.19;29.92;41.14;;
64545;Laerm;50936;51.660;5.616;2023-07-08T02:52:58;37.11;31.68;43.34;;
64545;Laerm;50936;51.660;5.616;2023-07-08T02:55:25;37.14;28.67;41.38;;
64545;Laerm;50936;51.660;5.616;2023-07-08T02:57:52;37.10;28.67;42.03;;
64545;Laerm;50936;51.660;5.616;2023-07-08T03:00:19;37.52;32.35;42.53;;
64545;Laerm;50936;51.660;5.616;2023-07-08T03:02:46;37.06;31.68;40.36;;
64545;Laerm;50936;51.660;5.616;2023-07-08T03:05:13;37.82;31.68;43.34;;
64545;Laerm;50936;51.660;5.616;2023-07-08T03:07:40;40.01;32.35;44.35;;
64545;Laerm;50936;51.660;5.616;2023-07-08T03:10:07;40.61;36.20;42.76;;
64545;Laerm;50936;51.660;5.616;2023-07-08T03:12:34;40.73;36.91;42.88;;
64545;Laerm;50936;51.660;5.616;2023-07-08T03:15:02;40.90;37.32;44.27;;
64545;Laerm;50936;51.660;5.616;2023-07-08T03:17:29;40.92;37.12;44.04;;
64545;Laerm;50936;51.660;5.616;2023-07-08T03:19:56;40.61;37.12;43.14;;
64545;Laerm;50936;51.660;5.616;2023-07-08T03:22:23;40.27;36.91;42.59;;
64545;Laerm;50936;51.660;5.616;2023-07-08T03:24:50;40.16;36.20;43.24;;
64545;Laerm;50936;51.660;5.616;2023-07-08T03:27:20;39.14;33.44;43.54;;
64545;Laerm;50936;51.660;5.616;2023-07-08T03:29:49;37.24;31.68;40.13;;
64545;Laerm;50936;51.660;5.616;2023-07-08T03:32:16;37.33;31.68;40.71;;
64545;Laerm;50936;51.660;5.616;2023-07-08T03:34:43;37.25;32.00;39.92;;
64545;Laerm;50936;51.660;5.616;2023-07-08T03:37:10;38.74;31.33;43.49;;
64545;Laerm;50936;51.660;5.616;2023-07-08T03:39:37;37.67;31.68;41.68;;
64545;Laerm;50936;51.660;5.616;2023-07-08T03:42:05;38.41;31.68;62.35;;
64545;Laerm;50936;51.660;5.616;2023-07-08T03:44:32;42.25;35.36;61.98;;
64545;Laerm;50936;51.660;5.616;2023-07-08T03:46:59;41.32;37.32;55.52;;
64545;Laerm;50936;51.660;5.616;2023-07-08T03:49:26;43.35;37.12;63.69;;
64545;Laerm;50936;51.660;5.616;2023-07-08T03:51:55;44.67;37.52;69.19;;
64545;Laerm;50936;51.660;5.616;2023-07-08T03:54:24;42.84;37.88;58.76;;
64545;Laerm;50936;51.660;5.616;2023-07-08T03:56:54;42.43;37.70;60.08;;
64545;Laerm;50936;51.660;5.616;2023-07-08T03:59:24;42.44;37.12;61.84;;
64545;Laerm;50936;51.660;5.616;2023-07-08T04:01:53;45.10;37.52;63.85;;
64545;Laerm;50936;51.660;5.616;2023-07-08T04:04:22;41.84;35.94;57.58;;
64545;Laerm;50936;51.660;5.616;2023-07-08T04:06:49;42.32;34.69;60.00;;
64545;Laerm;50936;51.660;5.616;2023-07-08T04:09:17;42.62;37.70;61.51;;
64545;Laerm;50936;51.660;5.616;2023-07-08T04:11:44;41.76;37.12;57.13;;
64545;Laerm;50936;51.660;5.616;2023-07-08T04:14:11;41.99;36.91;62.53;;
64545;Laerm;50936;51.660;5.616;2023-07-08T04:16:49;43.72;37.12;64.65;;
64545;Laerm;50936;51.660;5.616;2023-07-08T04:19:18;41.24;37.52;54.99;;
64545;Laerm;50936;51.660;5.616;2023-07-08T04:21:46;41.45;37.88;57.61;;
64545;Laerm;50936;51.660;5.616;2023-07-08T04:24:16;44.41;37.12;69.31;;
64545;Laerm;50936;51.660;5.616;2023-07-08T04:26:46;43.49;36.91;67.21;;
64545;Laerm;50936;51.660;5.616;2023-07-08T04:29:20;43.84;36.91;63.60;;
64545;Laerm;50936;51.660;5.616;2023-07-08T04:31:48;41.74;36.91;59.50;;
64545;Laerm;50936;51.660;5.616;2023-07-08T04:34:16;47.29;38.05;70.24;;
64545;Laerm;50936;51.660;5.616;2023-07-08T04:36:44;48.64;37.52;72.84;;
64545;Laerm;50936;51.660;5.616;2023-07-08T04:39:12;48.04;37.88;66.25;;
64545;Laerm;50936;51.660;5.616;2023-07-08T04:41:40;53.06;37.12;69.11;;
64545;Laerm;50936;51.660;5.616;2023-07-08T04:44:11;52.31;36.34;70.35;;
64545;Laerm;50936;51.660;5.616;2023-07-08T04:46:58;50.94;35.94;72.69;;
64545;Laerm;50936;51.660;5.616;2023-07-08T04:49:25;47.44;36.69;65.68;;
64545;Laerm;50936;51.660;5.616;2023-07-08T04:51:58;52.44;37.12;67.65;;
64545;Laerm;50936;51.660;5.616;2023-07-08T04:54:26;51.89;38.95;68.01;;
64545;Laerm;50936;51.660;5.616;2023-07-08T04:56:53;51.95;39.70;65.87;;
64545;Laerm;50936;51.660;5.616;2023-07-08T04:59:25;49.15;36.91;66.80;;
64545;Laerm;50936;51.660;5.616;2023-07-08T05:01:53;48.79;35.36;69.23;;
64545;Laerm;50936;51.660;5.616;2023-07-08T05:04:22;48.01;36.69;64.76;;
64545;Laerm;50936;51.660;5.616;2023-07-08T05:06:49;50.12;37.70;64.10;;
64545;Laerm;50936;51.660;5.616;2023-07-08T05:09:17;55.19;39.08;75.53;;
64545;Laerm;50936;51.660;5.616;2023-07-08T05:11:44;52.06;38.95;77.22;;
64545;Laerm;50936;51.660;5.616;2023-07-08T05:14:12;45.75;40.13;66.56;;
64545;Laerm;50936;51.660;5.616;2023-07-08T05:16:40;51.25;39.92;79.67;;
64545;Laerm;50936;51.660;5.616;2023-07-08T05:19:07;46.52;40.98;65.96;;
64545;Laerm;50936;51.660;5.616;2023-07-08T05:21:34;52.91;40.62;77.90;;
64545;Laerm;50936;51.660;5.616;2023-07-08T05:24:04;51.41;40.71;73.54;;
64545;Laerm;50936;51.660;5.616;2023-07-08T05:26:32;44.76;40.33;56.25;;
64545;Laerm;50936;51.660;5.616;2023-07-08T05:28:59;44.85;38.37;53.77;;
64545;Laerm;50936;51.660;5.616;2023-07-08T05:31:28;46.01;39.21;66.43;;
64545;Laerm;50936;51.660;5.616;2023-07-08T05:34:14;45.51;38.81;57.95;;
64545;Laerm;50936;51.660;5.616;2023-07-08T05:36:42;44.85;39.81;58.24;;
64545;Laerm;50936;51.660;5.616;2023-07-08T05:39:09;45.01;39.92;57.35;;
64545;Laerm;50936;51.660;5.616;2023-07-08T05:41:36;45.15;39.92;59.49;;
64545;Laerm;50936;51.660;5.616;2023-07-08T05:44:03;53.98;39.81;83.61;;
64545;Laerm;50936;51.660;5.616;2023-07-08T05:46:30;49.68;39.92;74.16;;
64545;Laerm;50936;51.660;5.616;2023-07-08T05:48:57;46.59;40.13;68.09;;
64545;Laerm;50936;51.660;5.616;2023-07-08T05:51:27;48.46;40.43;71.68;;
64545;Laerm;50936;51.660;5.616;2023-07-08T05:53:54;44.48;40.13;53.53;;
64545;Laerm;50936;51.660;5.616;2023-07-08T05:56:21;50.89;39.70;78.08;;
64545;Laerm;50936;51.660;5.616;2023-07-08T05:58:48;49.16;38.95;73.00;;
64545;Laerm;50936;51.660;5.616;2023-07-08T06:01:15;51.58;38.95;71.75;;
64545;Laerm;50936;51.660;5.616;2023-07-08T06:03:42;52.97;40.03;68.24;;
64545;Laerm;50936;51.660;5.616;2023-07-08T06:06:09;54.87;38.52;77.01;;
64545;Laerm;50936;51.660;5.616;2023-07-08T06:08:36;53.45;40.62;70.70;;
64545;Laerm;50936;51.660;5.616;2023-07-08T06:11:03;53.76;39.70;74.14;;
64545;Laerm;50936;51.660;5.616;2023-07-08T06:13:30;51.73;35.59;76.48;;
64545;Laerm;50936;51.660;5.616;2023-07-08T06:15:58;40.54;35.36;54.19;;
64545;Laerm;50936;51.660;5.616;2023-07-08T06:18:25;40.87;35.36;52.37;;
64545;Laerm;50936;51.660;5.616;2023-07-08T06:20:57;41.40;36.45;61.70;;
64545;Laerm;50936;51.660;5.616;2023-07-08T06:23:25;41.62;35.04;62.68;;
64545;Laerm;50936;51.660;5.616;2023-07-08T06:25:52;41.29;36.69;50.53;;
64545;Laerm;50936;51.660;5.616;2023-07-08T06:28:20;43.28;36.45;72.99;;
64545;Laerm;50936;51.660;5.616;2023-07-08T06:30:48;40.80;35.66;53.26;;
64545;Laerm;50936;51.660;5.616;2023-07-08T06:33:15;41.01;35.31;53.03;;
64545;Laerm;50936;51.660;5.616;2023-07-08T06:35:43;43.77;34.69;62.68;;
64545;Laerm;50936;51.660;5.616;2023-07-08T06:38:10;41.80;35.66;55.23;;
64545;Laerm;50936;51.660;5.616;2023-07-08T06:40:37;41.56;32.93;55.36;;
64545;Laerm;50936;51.660;5.616;2023-07-08T06:43:04;41.89;37.70;45.27;;
64545;Laerm;50936;51.660;5.616;2023-07-08T06:45:46;42.58;36.69;61.63;;
64545;Laerm;50936;51.660;5.616;2023-07-08T06:48:13;43.92;37.12;64.67;;
64545;Laerm;50936;51.660;5.616;2023-07-08T06:50:45;46.42;38.05;71.27;;
64545;Laerm;50936;51.660;5.616;2023-07-08T06:53:14;45.78;38.32;65.28;;
64545;Laerm;50936;51.660;5.616;2023-07-08T06:55:43;52.44;37.32;75.07;;
64545;Laerm;50936;51.660;5.616;2023-07-08T06:58:10;54.66;38.21;80.72;;
64545;Laerm;50936;51.660;5.616;2023-07-08T07:00:37;48.45;37.32;72.12;;
64545;Laerm;50936;51.660;5.616;2023-07-08T07:03:04;43.77;37.70;64.27;;
64545;Laerm;50936;51.660;5.616;2023-07-08T07:05:31;43.26;37.70;65.87;;
64545;Laerm;50936;51.660;5.616;2023-07-08T07:07:58;41.94;37.88;54.67;;
64545;Laerm;50936;51.660;5.616;2023-07-08T07:10:26;42.28;37.70;58.04;;
64545;Laerm;50936;51.660;5.616;2023-07-08T07:12:53;42.08;36.91;60.33;;
64545;Laerm;50936;51.660;5.616;2023-07-08T07:15:20;41.96;37.70;50.69;;
64545;Laerm;50936;51.660;5.616;2023-07-08T07:17:47;43.50;38.21;61.22;;
64545;Laerm;50936;51.660;5.616;2023-07-08T07:20:14;42.50;38.81;61.24;;
64545;Laerm;50936;51.660;5.616;2023-07-08T07:22:41;47.01;38.21;73.26;;
64545;Laerm;50936;51.660;5.616;2023-07-08T07:25:08;42.09;38.21;58.78;;
64545;Laerm;50936;51.660;5.616;2023-07-08T07:27:36;42.01;37.12;57.98;;
64545;Laerm;50936;51.660;5.616;2023-07-08T07:30:03;52.27;38.21;76.63;;
64545;Laerm;50936;51.660;5.616;2023-07-08T07:32:30;61.34;37.52;89.82;;
64545;Laerm;50936;51.660;5.616;2023-07-08T07:34:59;54.50;39.34;73.42;;
64545;Laerm;50936;51.660;5.616;2023-07-08T07:37:26;57.13;39.81;78.53;;
64545;Laerm;50936;51.660;5.616;2023-07-08T07:39:53;60.68;39.70;82.16;;
64545;Laerm;50936;51.660;5.616;2023-07-08T07:42:20;51.15;40.03;78.74;;
64545;Laerm;50936;51.660;5.616;2023-07-08T07:44:47;51.78;38.81;77.05;;
64545;Laerm;50936;51.660;5.616;2023-07-08T07:47:14;47.00;38.52;68.35;;
64545;Laerm;50936;51.660;5.616;2023-07-08T07:49:41;53.26;38.95;87.04;;
64545;Laerm;50936;51.660;5.616;2023-07-08T07:52:09;44.86;39.92;59.89;;
64545;Laerm;50936;51.660;5.616;2023-07-08T07:54:39;45.53;38.21;59.06;;
64545;Laerm;50936;51.660;5.616;2023-07-08T07:57:06;45.54;38.52;57.76;;
64545;Laerm;50936;51.660;5.616;2023-07-08T07:59:34;58.41;38.95;85.79;;
64545;Laerm;50936;51.660;5.616;2023-07-08T08:02:01;48.43;39.70;69.77;;
64545;Laerm;50936;51.660;5.616;2023-07-08T08:04:28;47.61;40.13;66.53;;
64545;Laerm;50936;51.660;5.616;2023-07-08T08:06:54;49.82;39.70;70.53;;
64545;Laerm;50936;51.660;5.616;2023-07-08T08:09:21;55.56;40.89;82.85;;
64545;Laerm;50936;51.660;5.616;2023-07-08T08:11:49;61.56;41.75;76.88;;
64545;Laerm;50936;51.660;5.616;2023-07-08T08:14:16;60.25;42.00;76.96;;
64545;Laerm;50936;51.660;5.616;2023-07-08T08:16:43;57.71;41.53;79.15;;
64545;Laerm;50936;51.660;5.616;2023-07-08T08:19:10;45.54;40.54;61.52;;
64545;Laerm;50936;51.660;5.616;2023-07-08T08:21:37;47.98;41.38;67.47;;
64545;Laerm;50936;51.660;5.616;2023-07-08T08:24:04;57.52;40.89;79.26;;
64545;Laerm;50936;51.660;5.616;2023-07-08T08:26:31;45.37;40.98;65.30;;
64545;Laerm;50936;51.660;5.616;2023-07-08T08:29:00;47.64;39.81;74.17;;
64545;Laerm;50936;51.660;5.616;2023-07-08T08:31:27;46.41;39.34;61.17;;
64545;Laerm;50936;51.660;5.616;2023-07-08T08:33:54;57.81;41.06;86.76;;
64545;Laerm;50936;51.660;5.616;2023-07-08T08:36:21;64.64;43.14;84.08;;
64545;Laerm;50936;51.660;5.616;2023-07-08T08:38:48;58.91;39.58;73.19;;
64545;Laerm;50936;51.660;5.616;2023-07-08T08:41:19;47.15;40.53;75.44;;
64545;Laerm;50936;51.660;5.616;2023-07-08T08:43:49;58.32;40.43;80.32;;
64545;Laerm;50936;51.660;5.616;2023-07-08T08:51:33;45.27;41.82;53.27;;
64545;Laerm;50936;51.660;5.616;2023-07-08T08:54:01;45.61;41.68;54.90;;
64545;Laerm;50936;51.660;5.616;2023-07-08T08:56:39;45.56;41.38;54.13;;
64545;Laerm;50936;51.660;5.616;2023-07-08T09:01:59;50.27;41.46;71.11;;
64545;Laerm;50936;51.660;5.616;2023-07-08T09:04:35;61.94;40.98;83.84;;
64545;Laerm;50936;51.660;5.616;2023-07-08T09:07:15;52.36;41.22;76.23;;
64545;Laerm;50936;51.660;5.616;2023-07-08T09:10:00;45.73;41.89;64.54;;
64545;Laerm;50936;51.660;5.616;2023-07-08T09:12:30;50.08;40.89;73.62;;
64545;Laerm;50936;51.660;5.616;2023-07-08T09:14:59;48.41;41.68;76.98;;
64545;Laerm;50936;51.660;5.616;2023-07-08T09:17:32;45.82;41.14;58.72;;
64545;Laerm;50936;51.660;5.616;2023-07-08T09:20:23;47.27;41.68;64.64;;
64545;Laerm;50936;51.660;5.616;2023-07-08T09:25:58;49.45;41.06;79.58;;
64545;Laerm;50936;51.660;5.616;2023-07-08T09:28:44;61.90;41.46;83.38;;
64545;Laerm;50936;51.660;5.616;2023-07-08T09:31:27;57.81;41.30;76.88;;
64545;Laerm;50936;51.660;5.616;2023-07-08T09:34:21;53.74;42.03;71.55;;
64545;Laerm;50936;51.660;5.616;2023-07-08T09:36:53;50.62;41.68;76.57;;
64545;Laerm;50936;51.660;5.616;2023-07-08T09:39:20;50.95;42.09;76.51;;
64545;Laerm;50936;51.660;5.616;2023-07-08T09:41:49;66.37;41.61;82.63;;
64545;Laerm;50936;51.660;5.616;2023-07-08T09:44:25;66.86;40.98;83.45;;
64545;Laerm;50936;51.660;5.616;2023-07-08T09:46:55;66.59;41.22;86.24;;
64545;Laerm;50936;51.660;5.616;2023-07-08T09:49:36;66.71;41.46;82.19;;
64545;Laerm;50936;51.660;5.616;2023-07-08T09:52:04;65.73;40.62;82.18;;
64545;Laerm;50936;51.660;5.616;2023-07-08T09:54:31;55.85;39.21;74.75;;
64545;Laerm;50936;51.660;5.616;2023-07-08T09:57:11;44.36;39.70;57.20;;
64545;Laerm;50936;51.660;5.616;2023-07-08T09:59:46;51.69;41.38;72.89;;
64545;Laerm;50936;51.660;5.616;2023-07-08T10:02:54;50.62;38.05;79.94;;
64545;Laerm;50936;51.660;5.616;2023-07-08T10:05:43;54.40;39.34;79.53;;
64545;Laerm;50936;51.660;5.616;2023-07-08T10:08:20;49.03;39.58;72.52;;
64545;Laerm;50936;51.660;5.616;2023-07-08T10:11:00;52.47;39.34;68.84;;
64545;Laerm;50936;51.660;5.616;2023-07-08T10:13:37;50.01;40.53;66.39;;
64545;Laerm;50936;51.660;5.616;2023-07-08T10:16:32;47.73;39.92;63.50;;
64545;Laerm;50936;51.660;5.616;2023-07-08T10:19:01;47.88;39.58;65.49;;
64545;Laerm;50936;51.660;5.616;2023-07-08T10:27:49;52.18;38.67;75.68;;
64545;Laerm;50936;51.660;5.616;2023-07-08T10:30:25;55.77;37.12;76.84;;
64545;Laerm;50936;51.660;5.616;2023-07-08T10:33:45;53.95;41.06;77.61;;
64545;Laerm;50936;51.660;5.616;2023-07-08T10:40:11;52.00;42.16;61.36;;
64545;Laerm;50936;51.660;5.616;2023-07-08T10:51:26;52.15;42.19;64.50;;
64545;Laerm;50936;51.660;5.616;2023-07-08T11:06:20;52.23;42.22;62.13;;
64545;Laerm;50936;51.660;5.616;2023-07-08T11:08:57;52.67;43.14;63.61;;
64545;Laerm;50936;51.660;5.616;2023-07-08T11:11:53;51.61;40.80;61.37;;
64545;Laerm;50936;51.660;5.616;2023-07-08T11:14:52;52.54;42.47;64.09;;
64545;Laerm;50936;51.660;5.616;2023-07-08T11:17:37;52.31;38.81;61.65;;
64545;Laerm;50936;51.660;5.616;2023-07-08T11:20:23;41.57;35.94;49.53;;
64545;Laerm;50936;51.660;5.616;2023-07-08T11:23:10;48.98;34.31;62.55;;
64545;Laerm;50936;51.660;5.616;2023-07-08T11:25:42;51.69;43.19;60.54;;
64545;Laerm;50936;51.660;5.616;2023-07-08T11:28:16;53.45;41.89;71.08;;
64545;Laerm;50936;51.660;5.616;2023-07-08T11:30:48;53.22;42.88;64.51;;
64545;Laerm;50936;51.660;5.616;2023-07-08T11:33:24;52.80;41.89;62.06;;
64545;Laerm;50936;51.660;5.616;2023-07-08T11:35:54;53.33;38.37;64.61;;
64545;Laerm;50936;51.660;5.616;2023-07-08T11:38:25;48.17;37.88;57.38;;
64545;Laerm;50936;51.660;5.616;2023-07-08T11:46:23;41.10;36.91;53.64;;
64545;Laerm;50936;51.660;5.616;2023-07-08T11:48:53;42.13;36.98;58.34;;
64545;Laerm;50936;51.660;5.616;2023-07-08T11:51:30;41.34;36.69;50.89;;
64545;Laerm;50936;51.660;5.616;2023-07-08T11:54:19;41.70;37.12;55.66;;
64545;Laerm;50936;51.660;5.616;2023-07-08T11:57:03;48.51;37.52;70.46;;
64545;Laerm;50936;51.660;5.616;2023-07-08T11:59:38;41.54;37.52;55.60;;
64545;Laerm;50936;51.660;5.616;2023-07-08T12:02:19;43.11;36.69;65.10;;
64545;Laerm;50936;51.660;5.616;2023-07-08T12:05:13;41.15;37.70;47.28;;
64545;Laerm;50936;51.660;5.616;2023-07-08T12:07:44;41.52;37.52;44.80;;
64545;Laerm;50936;51.660;5.616;2023-07-08T12:10:27;40.86;37.12;46.10;;
64545;Laerm;50936;51.660;5.616;2023-07-08T12:12:55;42.02;37.12;55.32;;
64545;Laerm;50936;51.660;5.616;2023-07-08T12:15:25;40.63;36.69;44.87;;
64545;Laerm;50936;51.660;5.616;2023-07-08T12:18:20;40.27;33.44;45.86;;
64545;Laerm;50936;51.660;5.616;2023-07-08T12:20:56;39.82;35.66;43.39;;
64545;Laerm;50936;51.660;5.616;2023-07-08T12:23:27;39.67;35.94;43.29;;
64545;Laerm;50936;51.660;5.616;2023-07-08T12:25:56;44.85;35.94;67.28;;
64545;Laerm;50936;51.660;5.616;2023-07-08T12:28:25;50.12;36.45;70.34;;
64545;Laerm;50936;51.660;5.616;2023-07-08T12:30:53;49.22;36.45;73.43;;
64545;Laerm;50936;51.660;5.616;2023-07-08T12:33:30;48.01;36.20;70.78;;
64545;Laerm;50936;51.660;5.616;2023-07-08T12:36:01;47.20;36.45;72.89;;
64545;Laerm;50936;51.660;5.616;2023-07-08T12:38:44;43.48;35.66;66.91;;
64545;Laerm;50936;51.660;5.616;2023-07-08T12:41:17;49.56;36.45;71.61;;
64545;Laerm;50936;51.660;5.616;2023-07-08T12:43:45;51.80;36.45;85.77;;
64545;Laerm;50936;51.660;5.616;2023-07-08T12:46:17;43.73;35.36;68.70;;
64545;Laerm;50936;51.660;5.616;2023-07-08T12:48:44;42.22;36.91;62.25;;
64545;Laerm;50936;51.660;5.616;2023-07-08T12:51:18;54.58;36.69;73.69;;
64545;Laerm;50936;51.660;5.616;2023-07-08T12:53:51;53.41;37.12;76.92;;
64545;Laerm;50936;51.660;5.616;2023-07-08T12:56:23;57.11;36.45;76.15;;
64545;Laerm;50936;51.660;5.616;2023-07-08T12:58:56;47.82;36.91;72.21;;
64545;Laerm;50936;51.660;5.616;2023-07-08T13:01:29;47.56;36.45;70.91;;
64545;Laerm;50936;51.660;5.616;2023-07-08T13:04:02;50.01;36.91;68.48;;
64545;Laerm;50936;51.660;5.616;2023-07-08T13:06:32;48.40;36.91;70.58;;
64545;Laerm;50936;51.660;5.616;2023-07-08T13:11:41;40.52;35.04;55.52;;
64545;Laerm;50936;51.660;5.616;2023-07-08T13:14:09;40.24;35.66;53.29;;
64545;Laerm;50936;51.660;5.616;2023-07-08T13:16:37;39.68;30.89;48.15;;
64545;Laerm;50936;51.660;5.616;2023-07-08T13:19:04;47.75;35.66;77.17;;
64545;Laerm;50936;51.660;5.616;2023-07-08T13:21:32;40.02;35.36;55.17;;
64545;Laerm;50936;51.660;5.616;2023-07-08T13:24:01;43.87;35.66;69.53;;
64545;Laerm;50936;51.660;5.616;2023-07-08T13:26:30;40.77;36.20;49.04;;
64545;Laerm;50936;51.660;5.616;2023-07-08T13:29:06;44.79;35.04;74.98;;
64545;Laerm;50936;51.660;5.616;2023-07-08T13:31:39;47.18;35.04;72.07;;
64545;Laerm;50936;51.660;5.616;2023-07-08T13:34:15;42.85;35.36;66.08;;
64545;Laerm;50936;51.660;5.616;2023-07-08T13:36:46;40.45;35.66;47.26;;
64545;Laerm;50936;51.660;5.616;2023-07-08T13:39:25;48.75;36.20;78.18;;
64545;Laerm;50936;51.660;5.616;2023-07-08T13:41:53;39.96;35.66;56.19;;
64545;Laerm;50936;51.660;5.616;2023-07-08T13:44:21;46.28;35.36;78.12;;
64545;Laerm;50936;51.660;5.616;2023-07-08T13:46:54;49.74;36.91;81.89;;
64545;Laerm;50936;51.660;5.616;2023-07-08T13:49:48;49.32;37.70;74.31;;
64545;Laerm;50936;51.660;5.616;2023-07-08T13:52:21;55.94;37.52;87.71;;
64545;Laerm;50936;51.660;5.616;2023-07-08T13:55:02;52.74;37.12;85.69;;
64545;Laerm;50936;51.660;5.616;2023-07-08T13:57:39;56.51;38.05;68.47;;
64545;Laerm;50936;51.660;5.616;2023-07-08T14:00:07;57.65;41.68;69.31;;
64545;Laerm;50936;51.660;5.616;2023-07-08T14:02:44;56.66;38.67;68.99;;
64545;Laerm;50936;51.660;5.616;2023-07-08T14:05:14;51.50;37.52;62.68;;
64545;Laerm;50936;51.660;5.616;2023-07-08T14:07:41;53.40;42.47;79.42;;
64545;Laerm;50936;51.660;5.616;2023-07-08T14:10:13;52.25;41.68;61.20;;
64545;Laerm;50936;51.660;5.616;2023-07-08T14:12:40;52.17;42.22;60.57;;
64545;Laerm;50936;51.660;5.616;2023-07-08T14:15:09;51.49;41.61;59.79;;
64545;Laerm;50936;51.660;5.616;2023-07-08T14:17:38;50.36;39.58;59.17;;
64545;Laerm;50936;51.660;5.616;2023-07-08T14:20:12;51.16;39.81;64.90;;
64545;Laerm;50936;51.660;5.616;2023-07-08T14:22:41;49.77;39.34;58.46;;
64545;Laerm;50936;51.660;5.616;2023-07-08T14:25:10;52.30;39.21;71.87;;
64545;Laerm;50936;51.660;5.616;2023-07-08T14:27:38;53.13;43.04;63.88;;
64545;Laerm;50936;51.660;5.616;2023-07-08T14:30:09;54.07;42.41;62.91;;
64545;Laerm;50936;51.660;5.616;2023-07-08T14:32:36;54.62;37.52;76.15;;
64545;Laerm;50936;51.660;5.616;2023-07-08T14:37:45;60.62;37.88;88.72;;
64545;Laerm;50936;51.660;5.616;2023-07-08T14:43:00;52.04;42.41;72.47;;
64545;Laerm;50936;51.660;5.616;2023-07-08T14:45:32;52.55;40.71;71.77;;
64545;Laerm;50936;51.660;5.616;2023-07-08T14:48:00;56.19;41.06;75.32;;
64545;Laerm;50936;51.660;5.616;2023-07-08T14:50:27;53.81;40.03;70.39;;
64545;Laerm;50936;51.660;5.616;2023-07-08T14:52:56;52.96;40.53;68.63;;
64545;Laerm;50936;51.660;5.616;2023-07-08T14:55:23;52.16;39.46;68.37;;
64545;Laerm;50936;51.660;5.616;2023-07-08T14:57:52;52.55;40.23;60.93;;
64545;Laerm;50936;51.660;5.616;2023-07-08T15:00:19;55.42;38.67;75.39;;
64545;Laerm;50936;51.660;5.616;2023-07-08T15:02:49;55.43;37.32;75.87;;